Time;durP1;ratioP1;P1;durP2;ratioP2;P2;SDS_P1;SDS_P2;PMS_P1;PMS_P2;Temp;Humidity;BMP_temperature;BMP_pressure;BME280_temperature;BME280_humidity;BME280_pressure;Samples;Min_cycle;Max_cycle;Signal;HPM_P1;HPM_P2
2021/07/04 00:00:50;;;;;;;5.77;3.73;;;;;;;;;;5039012;28;20041;-76
2021/07/04 00:03:16;;;;;;;7.10;3.97;;;;;;;;;;5037591;28;20036;-75
2021/07/04 00:05:44;;;;;;;5.85;3.85;;;;;;;;;;5039153;28;20029;-75
2021/07/04 00:08:11;;;;;;;4.55;3.97;;;;;;;;;;5037014;28;20017;-75
2021/07/04 00:10:37;;;;;;;;;;;;;;;;;;5039519;28;20018;-75
2021/07/04 00:13:04;;;;;;;4.65;3.60;;;;;;;;;;5038454;28;19908;-75
2021/07/04 00:15:34;;;;;;;5.57;3.92;;;;;;;;;;5036710;28;20033;-75
2021/07/04 00:18:00;;;;;;;5.78;3.97;;;;;;;;;;5035314;28;20087;-75
2021/07/04 00:20:26;;;;;;;4.17;3.77;;;;;;;;;;5037775;28;20075;-75
2021/07/04 00:22:54;;;;;;;6.17;3.90;;;;;;;;;;5036021;28;20029;-76
2021/07/04 00:25:21;;;;;;;6.07;4.20;;;;;;;;;;5037177;28;20144;-76
2021/07/04 00:27:47;;;;;;;;;;;;;;;;;;5037485;28;20067;-75
2021/07/04 00:30:14;;;;;;;5.15;3.75;;;;;;;;;;5038088;28;20320;-75
2021/07/04 00:32:40;;;;;;;;;;;;;;;;;;5037991;28;20045;-76
2021/07/04 00:35:08;;;;;;;4.60;3.35;;;;;;;;;;5037646;28;19959;-76
2021/07/04 00:37:34;;;;;;;6.00;3.85;;;;;;;;;;5037209;28;20123;-77
2021/07/04 00:40:00;;;;;;;4.97;3.80;;;;;;;;;;5035498;28;20106;-77
2021/07/04 00:42:26;;;;;;;5.63;3.90;;;;;;;;;;5038468;28;20285;-75
2021/07/04 00:44:53;;;;;;;6.73;3.83;;;;;;;;;;5037061;28;20025;-76
2021/07/04 00:47:19;;;;;;;4.15;3.75;;;;;;;;;;5034149;28;20117;-76
2021/07/04 00:49:47;;;;;;;4.28;3.88;;;;;;;;;;5038569;28;20057;-76
2021/07/04 00:52:13;;;;;;;3.92;3.45;;;;;;;;;;5037224;28;20029;-76
2021/07/04 00:54:39;;;;;;;6.83;3.83;;;;;;;;;;5038134;28;20025;-76
2021/07/04 00:57:06;;;;;;;4.57;4.17;;;;;;;;;;5035520;28;21628;-76
2021/07/04 00:59:32;;;;;;;4.85;3.95;;;;;;;;;;5038336;28;20025;-76
2021/07/04 01:01:59;;;;;;;6.13;3.90;;;;;;;;;;5035932;28;20033;-77
2021/07/04 01:04:28;;;;;;;4.32;3.78;;;;;;;;;;5037843;28;20651;-76
2021/07/04 01:06:55;;;;;;;5.95;3.50;;;;;;;;;;5037242;28;20025;-76
2021/07/04 01:09:21;;;;;;;4.15;3.75;;;;;;;;;;5036752;28;20048;-77
2021/07/04 01:11:48;;;;;;;4.38;3.97;;;;;;;;;;5036810;28;20037;-78
2021/07/04 01:14:15;;;;;;;5.07;4.03;;;;;;;;;;5037724;28;20536;-76
2021/07/04 01:16:42;;;;;;;4.82;3.60;;;;;;;;;;5036726;28;20032;-76
2021/07/04 01:19:09;;;;;;;4.40;3.97;;;;;;;;;;5035884;28;20543;-76
2021/07/04 01:21:39;;;;;;;5.22;3.42;;;;;;;;;;5036255;28;20083;-75
2021/07/04 01:24:06;;;;;;;4.15;3.75;;;;;;;;;;5037160;28;20025;-75
2021/07/04 01:26:32;;;;;;;5.97;3.67;;;;;;;;;;5039245;28;20080;-76
2021/07/04 01:28:58;;;;;;;5.88;3.80;;;;;;;;;;5036821;28;20029;-77
2021/07/04 01:31:24;;;;;;;6.17;3.87;;;;;;;;;;5039554;28;20017;-75
2021/07/04 01:33:50;;;;;;;5.28;4.00;;;;;;;;;;5038538;28;20033;-76
2021/07/04 01:36:16;;;;;;;5.60;3.80;;;;;;;;;;5041801;28;20390;-75
2021/07/04 01:38:43;;;;;;;5.15;4.13;;;;;;;;;;5041690;28;20032;-75
2021/07/04 01:41:09;;;;;;;4.50;3.65;;;;;;;;;;5038286;28;20056;-77
2021/07/04 01:43:35;;;;;;;4.72;3.75;;;;;;;;;;5043397;28;20029;-75
2021/07/04 01:46:01;;;;;;;8.53;3.87;;;;;;;;;;5041034;28;20780;-76
2021/07/04 01:48:28;;;;;;;4.47;3.78;;;;;;;;;;5037144;28;20492;-75
2021/07/04 01:50:54;;;;;;;5.03;3.88;;;;;;;;;;5036814;28;20147;-77
2021/07/04 01:53:21;;;;;;;4.30;3.83;;;;;;;;;;5036534;28;20108;-76
2021/07/04 01:55:47;;;;;;;5.60;3.85;;;;;;;;;;5036875;28;20382;-76
2021/07/04 01:58:13;;;;;;;5.18;3.85;;;;;;;;;;5037423;28;20855;-76
2021/07/04 02:00:39;;;;;;;5.10;3.70;;;;;;;;;;5036519;28;20032;-76
2021/07/04 02:03:08;;;;;;;4.05;3.65;;;;;;;;;;5036789;28;20114;-75
2021/07/04 02:05:35;;;;;;;3.85;3.45;;;;;;;;;;5035664;28;20134;-76
2021/07/04 02:08:01;;;;;;;5.13;3.63;;;;;;;;;;5036221;28;20029;-75
2021/07/04 02:10:28;;;;;;;5.47;3.80;;;;;;;;;;5035699;28;20017;-76
2021/07/04 02:12:55;;;;;;;4.13;3.72;;;;;;;;;;5035934;28;20437;-75
2021/07/04 02:15:22;;;;;;;4.10;3.70;;;;;;;;;;5036097;28;20108;-75
2021/07/04 02:17:48;;;;;;;4.63;3.90;;;;;;;;;;5035973;28;20485;-76
2021/07/04 02:20:18;;;;;;;5.28;3.60;;;;;;;;;;5035843;28;20028;-75
2021/07/04 02:22:45;;;;;;;5.70;3.85;;;;;;;;;;5035031;28;20037;-75
2021/07/04 02:25:11;;;;;;;;;;;;;;;;;;5036267;28;20122;-76
2021/07/04 02:27:37;;;;;;;3.97;3.67;;;;;;;;;;5043041;28;19909;-75
2021/07/04 02:30:04;;;;;;;5.67;4.10;;;;;;;;;;5044533;28;20125;-76
2021/07/04 02:32:30;;;;;;;4.25;3.83;;;;;;;;;;5042180;28;20104;-76
2021/07/04 02:34:56;;;;;;;3.78;3.38;;;;;;;;;;5036626;28;20595;-76
2021/07/04 02:37:22;;;;;;;4.22;3.75;;;;;;;;;;5031275;28;20230;-76
2021/07/04 02:39:48;;;;;;;9.07;3.80;;;;;;;;;;5029734;28;20040;-75
2021/07/04 02:42:15;;;;;;;4.85;3.50;;;;;;;;;;5037306;28;20250;-76
2021/07/04 02:44:41;;;;;;;;;;;;;;;;;;5035451;28;20032;-75
2021/07/04 02:47:07;;;;;;;4.00;3.60;;;;;;;;;;5032368;28;20306;-75
2021/07/04 02:49:33;;;;;;;4.25;3.80;;;;;;;;;;5036578;28;20116;-75
2021/07/04 02:51:59;;;;;;;6.00;3.90;;;;;;;;;;5034893;28;20031;-76
2021/07/04 02:54:25;;;;;;;4.10;3.70;;;;;;;;;;5035988;28;20140;-76
2021/07/04 02:56:51;;;;;;;4.05;3.60;;;;;;;;;;5034552;28;20060;-77
2021/07/04 02:59:17;;;;;;;4.43;3.67;;;;;;;;;;5035017;28;20022;-76
2021/07/04 03:01:43;;;;;;;6.00;3.70;;;;;;;;;;5036539;28;20018;-76
2021/07/04 03:04:09;;;;;;;4.97;3.97;;;;;;;;;;5049312;28;20032;-76
2021/07/04 03:06:35;;;;;;;5.63;3.73;;;;;;;;;;5049360;28;20693;-76
2021/07/04 03:09:01;;;;;;;6.50;4.00;;;;;;;;;;5047557;28;20478;-75
2021/07/04 03:11:27;;;;;;;4.23;3.67;;;;;;;;;;5068150;28;20376;-76
2021/07/04 03:13:53;;;;;;;4.03;3.63;;;;;;;;;;5069029;28;20024;-78
2021/07/04 03:16:19;;;;;;;5.37;3.77;;;;;;;;;;5067911;28;20024;-76
2021/07/04 03:18:45;;;;;;;4.43;4.03;;;;;;;;;;5071621;28;20017;-76
2021/07/04 03:21:12;;;;;;;4.50;3.60;;;;;;;;;;5073079;28;20029;-76
2021/07/04 03:23:38;;;;;;;4.47;3.85;;;;;;;;;;5073011;28;20071;-75
2021/07/04 03:26:04;;;;;;;4.20;3.80;;;;;;;;;;5041995;28;20471;-76
2021/07/04 03:28:30;;;;;;;5.10;4.00;;;;;;;;;;5051986;28;20078;-75
2021/07/04 03:30:56;;;;;;;6.60;3.90;;;;;;;;;;5054158;28;20025;-76
2021/07/04 03:33:22;;;;;;;4.27;3.60;;;;;;;;;;5053314;28;20036;-75
2021/07/04 03:35:48;;;;;;;4.17;3.67;;;;;;;;;;5054490;28;20040;-75
2021/07/04 03:38:15;;;;;;;7.40;3.73;;;;;;;;;;5047831;28;20083;-76
2021/07/04 03:40:43;;;;;;;5.07;4.10;;;;;;;;;;5048484;28;20067;-76
2021/07/04 03:43:10;;;;;;;6.15;3.90;;;;;;;;;;5053783;28;20029;-76
2021/07/04 03:45:36;;;;;;;3.97;3.63;;;;;;;;;;5052637;28;20124;-76
2021/07/04 03:48:02;;;;;;;3.70;3.40;;;;;;;;;;5058278;28;20025;-76
2021/07/04 03:50:28;;;;;;;4.60;3.80;;;;;;;;;;5060136;28;20020;-76
2021/07/04 03:52:56;;;;;;;4.40;3.97;;;;;;;;;;5059980;28;20032;-75
2021/07/04 03:55:22;;;;;;;4.28;3.65;;;;;;;;;;5059636;28;20028;-78
2021/07/04 03:57:48;;;;;;;4.55;3.60;;;;;;;;;;5061920;28;20031;-76
2021/07/04 04:00:14;;;;;;;4.10;3.47;;;;;;;;;;5060979;28;20075;-75
2021/07/04 04:02:43;;;;;;;5.50;3.75;;;;;;;;;;5053910;28;20490;-76
2021/07/04 04:05:09;;;;;;;4.68;3.90;;;;;;;;;;5053994;28;20052;-76
2021/07/04 04:07:35;;;;;;;4.72;3.70;;;;;;;;;;5054801;28;20017;-76
2021/07/04 04:10:04;;;;;;;3.90;3.60;;;;;;;;;;5054751;28;20028;-75
2021/07/04 04:12:30;;;;;;;4.05;3.50;;;;;;;;;;5055752;28;20063;-77
2021/07/04 04:14:56;;;;;;;6.85;3.85;;;;;;;;;;5056159;28;20032;-76
2021/07/04 04:17:22;;;;;;;4.10;3.60;;;;;;;;;;5057897;28;20021;-75
2021/07/04 04:19:48;;;;;;;4.20;3.40;;;;;;;;;;5060493;28;20437;-76
2021/07/04 04:22:14;;;;;;;4.67;3.83;;;;;;;;;;5058040;28;20032;-76
2021/07/04 04:24:40;;;;;;;4.95;3.83;;;;;;;;;;5053628;28;20486;-76
2021/07/04 04:27:09;;;;;;;4.17;3.77;;;;;;;;;;5051932;28;20104;-76
2021/07/04 04:29:35;;;;;;;7.35;4.00;;;;;;;;;;5052805;28;20021;-76
2021/07/04 04:32:01;;;;;;;5.03;3.80;;;;;;;;;;5052787;28;20031;-75
2021/07/04 04:34:27;;;;;;;6.23;3.77;;;;;;;;;;5053544;28;20014;-75
2021/07/04 04:36:53;;;;;;;5.80;3.97;;;;;;;;;;5049281;28;20251;-76
2021/07/04 04:39:20;;;;;;;5.15;3.80;;;;;;;;;;5044191;28;20013;-76
2021/07/04 04:41:47;;;;;;;7.82;4.30;;;;;;;;;;5052046;28;20052;-76
2021/07/04 04:44:13;;;;;;;7.55;4.03;;;;;;;;;;5051957;28;20021;-76
2021/07/04 04:46:39;;;;;;;4.93;3.77;;;;;;;;;;5052281;28;20021;-76
2021/07/04 04:49:05;;;;;;;4.82;3.75;;;;;;;;;;5050780;28;20021;-77
2021/07/04 04:51:33;;;;;;;5.32;3.70;;;;;;;;;;5052468;28;20033;-76
2021/07/04 04:53:59;;;;;;;4.55;3.88;;;;;;;;;;5052395;28;20032;-75
2021/07/04 04:56:26;;;;;;;4.23;3.80;;;;;;;;;;5052877;28;20054;-76
2021/07/04 04:58:52;;;;;;;8.15;3.92;;;;;;;;;;5052209;28;20029;-75
2021/07/04 05:01:18;;;;;;;5.50;4.00;;;;;;;;;;4347045;28;10000848;-75
2021/07/04 05:03:45;;;;;;;4.10;3.70;;;;;;;;;;5045767;28;20027;-76
2021/07/04 05:06:11;;;;;;;5.90;3.80;;;;;;;;;;5050802;28;20250;-76
2021/07/04 05:08:37;;;;;;;6.38;3.60;;;;;;;;;;5042103;28;20733;-76
2021/07/04 05:11:05;;;;;;;7.00;3.77;;;;;;;;;;5050336;28;20524;-76
2021/07/04 05:13:31;;;;;;;5.30;3.90;;;;;;;;;;5052354;28;20025;-75
2021/07/04 05:15:57;;;;;;;6.80;4.32;;;;;;;;;;5052232;28;20024;-76
2021/07/04 05:18:23;;;;;;;4.45;3.70;;;;;;;;;;5051871;28;20450;-76
2021/07/04 05:20:49;;;;;;;5.23;3.70;;;;;;;;;;5052287;28;20108;-76
2021/07/04 05:23:15;;;;;;;5.43;3.70;;;;;;;;;;5051071;28;20541;-76
2021/07/04 05:25:41;;;;;;;5.17;4.03;;;;;;;;;;5050647;28;20378;-77
2021/07/04 05:28:07;;;;;;;7.50;3.90;;;;;;;;;;5038175;28;20494;-76
2021/07/04 05:30:33;;;;;;;4.30;3.70;;;;;;;;;;5032705;28;20025;-76
2021/07/04 05:32:59;;;;;;;4.33;3.93;;;;;;;;;;5038483;28;20431;-76
2021/07/04 05:35:27;;;;;;;5.35;3.53;;;;;;;;;;5071585;28;20082;-75
2021/07/04 05:37:53;;;;;;;4.13;3.65;;;;;;;;;;5054778;28;20028;-76
2021/07/04 05:40:19;;;;;;;4.57;3.50;;;;;;;;;;5050866;28;20091;-75
2021/07/04 05:42:45;;;;;;;5.87;3.93;;;;;;;;;;5051916;28;20029;-75
2021/07/04 05:45:21;;;;;;;4.63;3.72;;;;;;;;;;5052315;28;20474;-76
2021/07/04 05:47:47;;;;;;;4.03;3.70;;;;;;;;;;5051501;28;20462;-75
2021/07/04 05:50:13;;;;;;;5.65;4.13;;;;;;;;;;5049623;28;20021;-75
2021/07/04 05:52:40;;;;;;;4.00;3.55;;;;;;;;;;5048974;28;20032;-76
2021/07/04 05:55:06;;;;;;;4.90;3.90;;;;;;;;;;5051872;28;20108;-76
2021/07/04 05:57:32;;;;;;;4.50;3.45;;;;;;;;;;5051503;28;20032;-75
2021/07/04 05:59:58;;;;;;;5.03;3.60;;;;;;;;;;5049187;28;20032;-76
2021/07/04 06:02:24;;;;;;;5.13;3.60;;;;;;;;;;5049529;28;20547;-77
2021/07/04 06:04:50;;;;;;;4.07;3.63;;;;;;;;;;5046327;28;20375;-76
2021/07/04 06:07:16;;;;;;;4.70;3.72;;;;;;;;;;5032474;28;20028;-76
2021/07/04 06:09:42;;;;;;;4.30;3.90;;;;;;;;;;5066839;28;20034;-76
2021/07/04 06:12:08;;;;;;;6.47;3.90;;;;;;;;;;5040954;28;20022;-76
2021/07/04 06:14:34;;;;;;;6.45;3.65;;;;;;;;;;5034732;28;20374;-76
2021/07/04 06:17:00;;;;;;;5.50;4.00;;;;;;;;;;5031178;28;20798;-77
2021/07/04 06:19:26;;;;;;;6.03;4.07;;;;;;;;;;5031523;28;20033;-76
2021/07/04 06:21:52;;;;;;;3.55;3.25;;;;;;;;;;5031670;28;20482;-76
2021/07/04 06:24:19;;;;;;;3.77;3.43;;;;;;;;;;5033599;28;20068;-76
2021/07/04 06:26:45;;;;;;;4.60;3.87;;;;;;;;;;5030711;28;20030;-76
2021/07/04 06:29:11;;;;;;;4.43;3.60;;;;;;;;;;5031378;28;20020;-76
2021/07/04 06:31:37;;;;;;;4.72;3.50;;;;;;;;;;5043780;28;20264;-77
2021/07/04 06:34:03;;;;;;;4.43;3.53;;;;;;;;;;5051058;28;20036;-75
2021/07/04 06:36:29;;;;;;;4.05;3.65;;;;;;;;;;5071922;28;20036;-76
2021/07/04 06:38:56;;;;;;;5.00;3.70;;;;;;;;;;5060201;28;20024;-76
2021/07/04 06:41:22;;;;;;;4.30;3.78;;;;;;;;;;5051264;28;20045;-75
2021/07/04 06:43:48;;;;;;;5.75;3.75;;;;;;;;;;5051270;28;20097;-76
2021/07/04 06:46:14;;;;;;;5.00;3.70;;;;;;;;;;5051379;28;20021;-77
2021/07/04 06:48:40;;;;;;;5.13;3.67;;;;;;;;;;5050103;28;20025;-76
2021/07/04 06:51:07;;;;;;;6.10;3.50;;;;;;;;;;5050976;28;20053;-76
2021/07/04 06:53:33;;;;;;;7.53;4.10;;;;;;;;;;5053290;28;20021;-77
2021/07/04 06:56:01;;;;;;;8.25;3.92;;;;;;;;;;5055546;28;20031;-77
2021/07/04 06:58:27;;;;;;;9.43;4.43;;;;;;;;;;5046819;28;20040;-77
2021/07/04 07:00:53;;;;;;;7.87;4.80;;;;;;;;;;5043634;28;20041;-77
2021/07/04 07:03:21;;;;;;;7.10;4.97;;;;;;;;;;5035391;28;20709;-76
2021/07/04 07:05:47;;;;;;;8.85;5.00;;;;;;;;;;5033908;28;20444;-77
2021/07/04 07:08:13;;;;;;;8.90;5.25;;;;;;;;;;5035101;28;20025;-77
2021/07/04 07:10:40;;;;;;;7.40;5.00;;;;;;;;;;5054664;28;20496;-79
2021/07/04 07:13:06;;;;;;;5.43;4.90;;;;;;;;;;5057104;28;20490;-78
2021/07/04 07:15:32;;;;;;;8.03;5.10;;;;;;;;;;5048013;28;20494;-78
2021/07/04 07:17:58;;;;;;;7.70;4.93;;;;;;;;;;5060156;28;20161;-78
2021/07/04 07:20:24;;;;;;;6.57;4.90;;;;;;;;;;5058581;28;20445;-77
2021/07/04 07:22:52;;;;;;;6.33;4.90;;;;;;;;;;5059638;28;20420;-79
2021/07/04 07:25:18;;;;;;;5.97;4.68;;;;;;;;;;5057768;28;20100;-78
2021/07/04 07:27:44;;;;;;;6.97;5.30;;;;;;;;;;5056274;28;20024;-77
2021/07/04 07:30:11;;;;;;;5.93;4.53;;;;;;;;;;5060590;28;20020;-78
2021/07/04 07:32:37;;;;;;;6.22;4.88;;;;;;;;;;5058834;28;20032;-77
2021/07/04 07:35:05;;;;;;;6.68;4.57;;;;;;;;;;5058609;28;20025;-78
2021/07/04 07:37:31;;;;;;;5.80;4.80;;;;;;;;;;5058704;28;20048;-77
2021/07/04 07:39:57;;;;;;;5.57;4.40;;;;;;;;;;5053242;28;20119;-78
2021/07/04 07:42:23;;;;;;;6.65;4.70;;;;;;;;;;5060428;28;20372;-78
2021/07/04 07:44:49;;;;;;;7.40;5.07;;;;;;;;;;5058199;28;20060;-77
2021/07/04 07:47:15;;;;;;;5.27;4.40;;;;;;;;;;5066306;28;20702;-78
2021/07/04 07:49:42;;;;;;;8.93;4.57;;;;;;;;;;5075488;28;20284;-77
2021/07/04 07:52:08;;;;;;;15.33;4.50;;;;;;;;;;5075574;28;20028;-77
2021/07/04 07:54:35;;;;;;;5.88;4.40;;;;;;;;;;5071985;28;20012;-77
2021/07/04 07:57:04;;;;;;;6.15;4.90;;;;;;;;;;5030429;28;20032;-77
2021/07/04 07:59:31;;;;;;;5.80;4.20;;;;;;;;;;5033841;28;20044;-78
2021/07/04 08:01:57;;;;;;;6.15;4.20;;;;;;;;;;5052806;28;20032;-79
2021/07/04 08:04:23;;;;;;;6.47;4.70;;;;;;;;;;5053756;28;20079;-78
2021/07/04 08:06:49;;;;;;;10.17;4.60;;;;;;;;;;5046114;28;20045;-79
2021/07/04 08:09:15;;;;;;;8.10;4.63;;;;;;;;;;5052002;28;20274;-80
2021/07/04 08:11:42;;;;;;;6.67;4.53;;;;;;;;;;5046124;28;20348;-78
2021/07/04 08:14:18;;;;;;;8.22;4.86;;;;;;;;;;4684455;28;10001918;-78
2021/07/04 08:16:44;;;;;;;7.82;4.57;;;;;;;;;;5041036;28;20112;-80
2021/07/04 08:19:10;;;;;;;4.30;3.88;;;;;;;;;;5040714;28;20516;-78
2021/07/04 08:21:36;;;;;;;7.03;3.80;;;;;;;;;;5042379;28;20036;-78
2021/07/04 08:24:02;;;;;;;4.93;4.40;;;;;;;;;;5038678;28;20857;-79
2021/07/04 08:26:28;;;;;;;6.10;3.90;;;;;;;;;;5040159;28;20350;-78
2021/07/04 08:28:54;;;;;;;4.90;4.40;;;;;;;;;;5038231;28;20021;-76
2021/07/04 08:31:23;;;;;;;6.43;3.97;;;;;;;;;;5039387;28;20129;-78
2021/07/04 08:33:49;;;;;;;6.00;4.00;;;;;;;;;;5042064;28;20074;-76
2021/07/04 08:36:15;;;;;;;4.57;3.50;;;;;;;;;;5039887;28;20025;-75
2021/07/04 08:38:41;;;;;;;7.00;4.20;;;;;;;;;;5040865;28;20025;-79
2021/07/04 08:41:07;;;;;;;4.77;4.00;;;;;;;;;;5040586;28;20296;-79
2021/07/04 08:43:34;;;;;;;4.00;3.60;;;;;;;;;;5039430;28;20044;-78
2021/07/04 08:46:04;;;;;;;3.95;3.40;;;;;;;;;;5050862;28;20029;-79
2021/07/04 08:48:30;;;;;;;4.85;3.38;;;;;;;;;;5042474;28;20120;-81
2021/07/04 08:50:56;;;;;;;5.53;3.78;;;;;;;;;;5039290;28;20053;-80
2021/07/04 08:53:22;;;;;;;4.63;3.60;;;;;;;;;;5039077;28;20087;-81
2021/07/04 08:55:49;;;;;;;3.43;3.13;;;;;;;;;;5040061;28;20841;-81
2021/07/04 08:58:20;;;;;;;5.88;3.40;;;;;;;;;;5034778;28;20025;-80
2021/07/04 09:01:06;;;;;;;3.72;3.35;;;;;;;;;;5036378;28;20021;-81
2021/07/04 09:03:33;;;;;;;3.63;3.30;;;;;;;;;;5034468;28;20041;-80
2021/07/04 09:05:59;;;;;;;3.93;3.40;;;;;;;;;;5039390;28;20036;-79
2021/07/04 09:08:25;;;;;;;22.73;5.03;;;;;;;;;;5039331;28;20025;-79
2021/07/04 09:11:10;;;;;;;20.80;5.13;;;;;;;;;;5035766;28;20403;-78
2021/07/04 09:13:36;;;;;;;13.15;4.20;;;;;;;;;;5035037;28;20028;-79
2021/07/04 09:16:07;;;;;;;11.30;3.77;;;;;;;;;;5033886;28;20025;-78
2021/07/04 09:18:33;;;;;;;4.97;3.33;;;;;;;;;;5038075;28;20053;-79
2021/07/04 09:21:00;;;;;;;8.32;3.90;;;;;;;;;;5037104;28;20083;-79
2021/07/04 09:23:33;;;;;;;5.18;3.88;;;;;;;;;;5032784;28;20071;-80
2021/07/04 09:26:00;;;;;;;6.72;3.53;;;;;;;;;;5035859;28;20276;-83
2021/07/04 09:28:27;;;;;;;7.65;3.60;;;;;;;;;;5036411;28;20032;-80
2021/07/04 09:30:55;;;;;;;5.10;3.63;;;;;;;;;;5032296;28;20074;-79
2021/07/04 09:33:22;;;;;;;5.78;3.83;;;;;;;;;;5036520;28;20029;-81
2021/07/04 09:35:55;;;;;;;4.93;3.70;;;;;;;;;;5035921;28;20133;-79
2021/07/04 09:38:21;;;;;;;6.10;3.63;;;;;;;;;;5036410;28;20021;-80
2021/07/04 09:40:48;;;;;;;4.15;3.75;;;;;;;;;;5036273;28;20087;-79
2021/07/04 09:43:15;;;;;;;5.82;4.13;;;;;;;;;;5034884;28;20458;-80
2021/07/04 09:45:46;;;;;;;4.60;4.20;;;;;;;;;;5038087;28;20121;-80
2021/07/04 09:48:13;;;;;;;4.40;4.00;;;;;;;;;;5039717;28;20048;-78
2021/07/04 09:50:40;;;;;;;5.55;4.32;;;;;;;;;;5037101;28;20694;-80
2021/07/04 09:53:06;;;;;;;4.95;3.90;;;;;;;;;;5038157;28;20025;-79
2021/07/04 09:55:32;;;;;;;5.47;4.20;;;;;;;;;;5038049;28;20028;-80
2021/07/04 09:58:02;;;;;;;4.65;4.20;;;;;;;;;;5038231;28;20092;-77
2021/07/04 10:00:32;;;;;;;5.20;4.07;;;;;;;;;;5042457;28;20512;-79
2021/07/04 10:03:04;;;;;;;5.30;4.30;;;;;;;;;;5036977;28;20029;-79
2021/07/04 10:05:30;;;;;;;4.20;3.80;;;;;;;;;;5043080;28;20153;-79
2021/07/04 10:07:56;;;;;;;5.20;3.88;;;;;;;;;;5036367;28;20029;-78
2021/07/04 10:10:22;;;;;;;4.13;3.55;;;;;;;;;;5034492;28;20104;-78
2021/07/04 10:12:49;;;;;;;3.70;3.40;;;;;;;;;;5043555;28;20543;-78
2021/07/04 10:15:15;;;;;;;6.18;3.47;;;;;;;;;;5035680;28;20041;-79
2021/07/04 10:17:45;;;;;;;5.43;3.30;;;;;;;;;;5037401;28;20026;-80
2021/07/04 10:20:11;;;;;;;7.03;4.35;;;;;;;;;;5030762;28;20044;-80
2021/07/04 10:22:38;;;;;;;10.80;4.93;;;;;;;;;;5032102;28;20386;-79
2021/07/04 10:25:06;;;;;;;6.90;5.30;;;;;;;;;;5032456;28;20113;-79
2021/07/04 10:27:38;;;;;;;8.85;5.50;;;;;;;;;;5036320;28;20355;-79
2021/07/04 10:30:05;;;;;;;9.30;5.53;;;;;;;;;;5038870;28;20102;-79
2021/07/04 10:32:31;;;;;;;9.65;5.35;;;;;;;;;;5038640;28;20033;-79
2021/07/04 10:35:05;;;;;;;15.27;5.87;;;;;;;;;;5038046;28;20482;-78
2021/07/04 10:37:33;;;;;;;10.70;5.35;;;;;;;;;;5038230;28;20040;-79
2021/07/04 10:40:09;;;;;;;11.75;5.32;;;;;;;;;;5039396;28;20080;-79
2021/07/04 10:42:38;;;;;;;12.70;5.68;;;;;;;;;;5037613;28;20037;-77
2021/07/04 10:45:05;;;;;;;8.55;5.10;;;;;;;;;;5039531;28;20029;-78
2021/07/04 10:47:35;;;;;;;9.30;5.50;;;;;;;;;;5040036;28;20029;-79
2021/07/04 10:50:12;;;;;;;10.90;5.00;;;;;;;;;;5038125;28;20033;-79
2021/07/04 10:52:38;;;;;;;;;;;;;;;;;;5039459;28;20083;-77
2021/07/04 10:55:06;;;;;;;10.32;4.70;;;;;;;;;;5037756;28;19920;-78
2021/07/04 10:57:51;;;;;;;6.45;4.50;;;;;;;;;;5037056;28;20033;-79
2021/07/04 11:00:23;;;;;;;12.77;5.07;;;;;;;;;;5037865;28;20038;-79
2021/07/04 11:02:50;;;;;;;9.60;4.40;;;;;;;;;;5033065;28;20040;-80
2021/07/04 11:05:16;;;;;;;;;;;;;;;;;;5038800;28;20033;-81
2021/07/04 11:08:11;;;;;;;7.00;3.85;;;;;;;;;;5037785;28;19912;-79
2021/07/04 11:10:39;;;;;;;6.55;4.13;;;;;;;;;;5038095;28;20118;-79
2021/07/04 11:13:08;;;;;;;7.30;4.20;;;;;;;;;;5036034;28;20029;-78
2021/07/04 11:15:35;;;;;;;8.70;4.70;;;;;;;;;;5039680;28;20024;-79
2021/07/04 11:18:01;;;;;;;7.95;4.35;;;;;;;;;;5037148;28;20032;-79
2021/07/04 11:20:49;;;;;;;11.20;5.28;;;;;;;;;;5038593;28;20025;-77
2021/07/04 11:23:19;;;;;;;5.97;4.57;;;;;;;;;;5038624;28;20509;-78
2021/07/04 11:25:45;;;;;;;12.63;4.78;;;;;;;;;;5036498;28;20064;-78
2021/07/04 11:28:18;;;;;;;5.75;4.20;;;;;;;;;;5035611;28;20037;-79
2021/07/04 11:30:46;;;;;;;6.30;4.30;;;;;;;;;;5039066;28;20020;-79
2021/07/04 11:33:29;;;;;;;6.10;4.10;;;;;;;;;;5037037;28;20032;-78
2021/07/04 11:36:14;;;;;;;6.93;3.78;;;;;;;;;;5038257;28;20021;-76
2021/07/04 11:38:48;;;;;;;7.20;3.97;;;;;;;;;;5035034;28;20125;-79
2021/07/04 11:41:19;;;;;;;6.15;3.88;;;;;;;;;;5037006;28;20041;-79
2021/07/04 11:43:45;;;;;;;6.95;3.88;;;;;;;;;;5037138;28;20071;-78
2021/07/04 11:46:13;;;;;;;8.80;3.85;;;;;;;;;;5046021;28;20746;-79
2021/07/04 11:48:53;;;;;;;5.50;3.80;;;;;;;;;;5037819;28;20036;-79
2021/07/04 11:51:23;;;;;;;4.97;3.80;;;;;;;;;;5039964;28;20112;-78
2021/07/04 11:53:50;;;;;;;4.88;3.50;;;;;;;;;;5039269;28;20032;-78
2021/07/04 11:56:17;;;;;;;11.40;3.85;;;;;;;;;;5034949;28;20040;-78
2021/07/04 11:58:43;;;;;;;6.20;4.13;;;;;;;;;;5034182;28;20450;-80
2021/07/04 12:01:19;;;;;;;8.13;4.15;;;;;;;;;;5035112;28;20374;-79
2021/07/04 12:03:55;;;;;;;6.75;4.70;;;;;;;;;;5035853;28;20101;-79
2021/07/04 12:06:22;;;;;;;6.57;4.40;;;;;;;;;;5038830;28;20766;-79
2021/07/04 12:08:48;;;;;;;;;;;;;;;;;;5038951;28;20017;-79
2021/07/04 12:11:14;;;;;;;9.65;4.90;;;;;;;;;;5036132;28;19920;-78
2021/07/04 12:13:48;;;;;;;6.87;4.80;;;;;;;;;;5036261;28;20024;-77
2021/07/04 12:16:15;;;;;;;4.55;3.63;;;;;;;;;;5035605;28;20030;-78
2021/07/04 12:18:41;;;;;;;5.35;4.47;;;;;;;;;;5037448;28;20028;-78
2021/07/04 12:21:07;;;;;;;6.93;4.43;;;;;;;;;;5038349;28;20025;-77
2021/07/04 12:23:33;;;;;;;5.65;3.90;;;;;;;;;;5037434;28;20064;-77
2021/07/04 12:26:07;;;;;;;4.47;4.05;;;;;;;;;;5035932;28;20036;-78
2021/07/04 12:28:33;;;;;;;5.70;4.20;;;;;;;;;;5034323;28;20031;-77
2021/07/04 12:30:59;;;;;;;5.40;4.60;;;;;;;;;;5038526;28;20521;-77
2021/07/04 12:33:29;;;;;;;5.43;4.47;;;;;;;;;;5036106;28;20258;-77
2021/07/04 12:36:05;;;;;;;4.22;3.83;;;;;;;;;;5037577;28;20029;-77
2021/07/04 12:38:35;;;;;;;6.90;4.00;;;;;;;;;;5035914;28;20053;-77
2021/07/04 12:41:02;;;;;;;4.82;3.60;;;;;;;;;;5036027;28;20045;-78
2021/07/04 12:43:30;;;;;;;6.00;3.55;;;;;;;;;;5032899;28;20025;-78
2021/07/04 12:45:57;;;;;;;5.00;4.00;;;;;;;;;;5035792;28;20041;-77
2021/07/04 12:48:25;;;;;;;4.47;3.30;;;;;;;;;;5037047;28;20029;-76
2021/07/04 12:50:58;;;;;;;12.68;4.80;;;;;;;;;;5034621;28;20021;-77
2021/07/04 12:53:40;;;;;;;10.20;4.88;;;;;;;;;;5033526;28;20030;-77
2021/07/04 12:56:17;;;;;;;7.07;4.22;;;;;;;;;;5037395;28;20795;-77
2021/07/04 12:58:51;;;;;;;6.43;4.55;;;;;;;;;;5035899;28;20074;-76
2021/07/04 13:01:22;;;;;;;8.60;4.43;;;;;;;;;;5032712;28;20025;-77
2021/07/04 13:03:50;;;;;;;6.45;3.85;;;;;;;;;;5035353;28;20033;-76
2021/07/04 13:06:32;;;;;;;3.80;2.92;;;;;;;;;;5035304;28;20501;-78
2021/07/04 13:08:59;;;;;;;7.50;3.92;;;;;;;;;;5036344;28;20074;-78
2021/07/04 13:11:25;;;;;;;7.18;3.13;;;;;;;;;;5035339;28;20034;-78
2021/07/04 13:14:05;;;;;;;4.20;2.90;;;;;;;;;;5035424;28;20033;-78
2021/07/04 13:16:32;;;;;;;4.43;3.00;;;;;;;;;;5035869;28;20382;-78
2021/07/04 13:18:58;;;;;;;7.20;2.65;;;;;;;;;;5039203;28;20067;-79
2021/07/04 13:21:32;;;;;;;5.30;3.00;;;;;;;;;;5039928;28;20030;-78
2021/07/04 13:24:13;;;;;;;6.47;2.88;;;;;;;;;;5040174;28;20041;-78
2021/07/04 13:26:40;;;;;;;4.82;2.47;;;;;;;;;;5037888;28;20029;-78
2021/07/04 13:29:18;;;;;;;5.37;2.60;;;;;;;;;;5036966;28;20025;-78
2021/07/04 13:31:44;;;;;;;3.67;2.10;;;;;;;;;;5048256;28;20017;-79
2021/07/04 13:34:22;;;;;;;2.70;2.13;;;;;;;;;;5052748;28;20049;-79
2021/07/04 13:36:55;;;;;;;2.72;2.30;;;;;;;;;;5051295;28;20305;-80
2021/07/04 13:39:21;;;;;;;7.03;2.58;;;;;;;;;;5041581;28;20432;-78
2021/07/04 13:41:47;;;;;;;4.30;2.70;;;;;;;;;;5038176;28;20029;-79
2021/07/04 13:44:13;;;;;;;9.13;3.00;;;;;;;;;;5037493;28;20032;-78
2021/07/04 13:46:40;;;;;;;10.38;2.72;;;;;;;;;;5036011;28;20591;-79
2021/07/04 13:49:06;;;;;;;3.10;2.33;;;;;;;;;;5035188;28;20052;-79
2021/07/04 13:51:32;;;;;;;4.57;2.70;;;;;;;;;;5034613;28;20072;-79
2021/07/04 13:53:58;;;;;;;5.37;2.60;;;;;;;;;;5037105;28;20852;-78
2021/07/04 13:56:24;;;;;;;3.50;2.33;;;;;;;;;;5037773;28;20029;-78
2021/07/04 13:58:50;;;;;;;5.93;2.50;;;;;;;;;;5036018;28;20029;-79
2021/07/04 14:01:16;;;;;;;5.07;2.70;;;;;;;;;;5033883;28;20505;-77
2021/07/04 14:03:42;;;;;;;4.00;2.70;;;;;;;;;;5033505;28;20478;-77
2021/07/04 14:06:09;;;;;;;4.37;2.57;;;;;;;;;;5030711;28;20637;-79
2021/07/04 14:08:35;;;;;;;4.47;2.67;;;;;;;;;;5034793;28;20025;-77
2021/07/04 14:11:01;;;;;;;4.47;2.50;;;;;;;;;;5034159;28;20040;-78
2021/07/04 14:13:28;;;;;;;5.78;2.33;;;;;;;;;;5031913;28;20103;-79
2021/07/04 14:15:54;;;;;;;3.00;2.70;;;;;;;;;;5029374;28;20069;-78
2021/07/04 14:18:20;;;;;;;4.70;2.50;;;;;;;;;;5034191;28;20287;-79
2021/07/04 14:20:47;;;;;;;3.70;2.20;;;;;;;;;;5035554;28;20057;-78
2021/07/04 14:23:13;;;;;;;3.17;2.42;;;;;;;;;;5036139;28;20108;-79
2021/07/04 14:25:39;;;;;;;3.38;2.28;;;;;;;;;;5036983;28;20017;-78
2021/07/04 14:28:06;;;;;;;4.57;2.73;;;;;;;;;;5034408;28;20022;-78
2021/07/04 14:30:32;;;;;;;;;;;;;;;;;;5035523;28;20050;-79
2021/07/04 14:32:58;;;;;;;4.22;2.75;;;;;;;;;;5036462;28;20336;-78
2021/07/04 14:35:25;;;;;;;4.53;2.78;;;;;;;;;;5035873;28;20501;-79
2021/07/04 14:37:52;;;;;;;3.03;2.55;;;;;;;;;;5035189;28;20040;-78
2021/07/04 14:40:19;;;;;;;5.13;2.83;;;;;;;;;;5032645;28;20072;-78
2021/07/04 14:42:47;;;;;;;3.63;2.30;;;;;;;;;;5035563;28;20032;-78
2021/07/04 14:45:13;;;;;;;3.63;2.20;;;;;;;;;;5035813;28;20016;-80
2021/07/04 14:47:39;;;;;;;2.73;1.97;;;;;;;;;;5036239;28;20032;-79